sensor_id;sensor_type;location;lat;lon;timestamp;P1;durP1;ratioP1;P2;durP2;ratioP2
4274;SDS011;2151;50.988;11.068;2023-06-14T00:02:10;120.90;;;8.20;;
4274;SDS011;2151;50.988;11.068;2023-06-14T00:04:37;127.40;;;8.23;;
4274;SDS011;2151;50.988;11.068;2023-06-14T00:07:05;120.43;;;7.63;;
4274;SDS011;2151;50.988;11.068;2023-06-14T00:09:36;122.07;;;8.73;;
4274;SDS011;2151;50.988;11.068;2023-06-14T00:12:03;120.90;;;8.17;;
4274;SDS011;2151;50.988;11.068;2023-06-14T00:14:32;119.40;;;7.97;;
4274;SDS011;2151;50.988;11.068;2023-06-14T00:16:58;125.20;;;8.53;;
4274;SDS011;2151;50.988;11.068;2023-06-14T00:19:25;121.10;;;7.83;;
4274;SDS011;2151;50.988;11.068;2023-06-14T00:21:51;120.87;;;7.90;;
4274;SDS011;2151;50.988;11.068;2023-06-14T00:24:19;124.80;;;8.50;;
4274;SDS011;2151;50.988;11.068;2023-06-14T00:26:46;121.50;;;7.97;;
4274;SDS011;2151;50.988;11.068;2023-06-14T00:29:13;122.73;;;7.70;;
4274;SDS011;2151;50.988;11.068;2023-06-14T00:31:39;121.50;;;8.20;;
4274;SDS011;2151;50.988;11.068;2023-06-14T00:34:06;122.60;;;7.80;;
4274;SDS011;2151;50.988;11.068;2023-06-14T00:36:32;122.17;;;7.77;;
4274;SDS011;2151;50.988;11.068;2023-06-14T00:38:59;128.73;;;7.57;;
4274;SDS011;2151;50.988;11.068;2023-06-14T00:41:25;124.57;;;7.40;;
4274;SDS011;2151;50.988;11.068;2023-06-14T00:43:53;121.30;;;7.50;;
4274;SDS011;2151;50.988;11.068;2023-06-14T00:46:22;121.53;;;8.10;;
4274;SDS011;2151;50.988;11.068;2023-06-14T00:48:49;120.77;;;7.70;;
4274;SDS011;2151;50.988;11.068;2023-06-14T00:51:16;122.80;;;7.33;;
4274;SDS011;2151;50.988;11.068;2023-06-14T00:53:42;125.47;;;8.10;;
4274;SDS011;2151;50.988;11.068;2023-06-14T00:56:13;121.60;;;7.60;;
4274;SDS011;2151;50.988;11.068;2023-06-14T00:58:41;130.37;;;7.60;;
4274;SDS011;2151;50.988;11.068;2023-06-14T01:01:08;125.17;;;8.20;;
4274;SDS011;2151;50.988;11.068;2023-06-14T01:03:34;120.70;;;7.40;;
4274;SDS011;2151;50.988;11.068;2023-06-14T01:06:16;127.17;;;8.50;;
4274;SDS011;2151;50.988;11.068;2023-06-14T01:11:38;123.27;;;8.57;;
4274;SDS011;2151;50.988;11.068;2023-06-14T01:14:07;120.57;;;7.40;;
4274;SDS011;2151;50.988;11.068;2023-06-14T01:16:34;122.80;;;8.10;;
4274;SDS011;2151;50.988;11.068;2023-06-14T01:19:02;122.00;;;8.57;;
4274;SDS011;2151;50.988;11.068;2023-06-14T01:21:29;120.57;;;7.87;;
4274;SDS011;2151;50.988;11.068;2023-06-14T01:23:56;119.70;;;7.30;;
4274;SDS011;2151;50.988;11.068;2023-06-14T01:26:22;123.50;;;8.30;;
4274;SDS011;2151;50.988;11.068;2023-06-14T01:28:49;125.63;;;8.03;;
4274;SDS011;2151;50.988;11.068;2023-06-14T01:31:18;125.33;;;8.47;;
4274;SDS011;2151;50.988;11.068;2023-06-14T01:33:45;122.37;;;7.97;;
4274;SDS011;2151;50.988;11.068;2023-06-14T01:36:11;125.60;;;7.80;;
4274;SDS011;2151;50.988;11.068;2023-06-14T01:38:38;124.30;;;8.20;;
4274;SDS011;2151;50.988;11.068;2023-06-14T01:41:05;121.87;;;8.67;;
4274;SDS011;2151;50.988;11.068;2023-06-14T01:43:32;121.87;;;7.73;;
4274;SDS011;2151;50.988;11.068;2023-06-14T01:45:59;121.57;;;7.37;;
4274;SDS011;2151;50.988;11.068;2023-06-14T01:48:26;120.20;;;7.20;;
4274;SDS011;2151;50.988;11.068;2023-06-14T01:50:52;123.77;;;7.83;;
4274;SDS011;2151;50.988;11.068;2023-06-14T01:53:19;124.10;;;8.73;;
4274;SDS011;2151;50.988;11.068;2023-06-14T01:55:46;123.70;;;7.90;;
4274;SDS011;2151;50.988;11.068;2023-06-14T01:58:15;123.87;;;7.50;;
4274;SDS011;2151;50.988;11.068;2023-06-14T02:00:44;124.73;;;8.30;;
4274;SDS011;2151;50.988;11.068;2023-06-14T02:03:11;126.07;;;8.10;;
4274;SDS011;2151;50.988;11.068;2023-06-14T02:05:38;124.07;;;7.70;;
4274;SDS011;2151;50.988;11.068;2023-06-14T02:08:08;126.50;;;7.57;;
4274;SDS011;2151;50.988;11.068;2023-06-14T02:10:34;129.90;;;7.67;;
4274;SDS011;2151;50.988;11.068;2023-06-14T02:13:02;127.97;;;7.63;;
4274;SDS011;2151;50.988;11.068;2023-06-14T02:15:28;123.77;;;8.00;;
4274;SDS011;2151;50.988;11.068;2023-06-14T02:18:03;127.97;;;7.63;;
4274;SDS011;2151;50.988;11.068;2023-06-14T02:20:30;132.47;;;7.90;;
4274;SDS011;2151;50.988;11.068;2023-06-14T02:22:57;122.40;;;7.80;;
4274;SDS011;2151;50.988;11.068;2023-06-14T02:25:23;123.03;;;8.13;;
4274;SDS011;2151;50.988;11.068;2023-06-14T02:27:49;122.87;;;7.50;;
4274;SDS011;2151;50.988;11.068;2023-06-14T02:30:16;131.30;;;7.97;;
4274;SDS011;2151;50.988;11.068;2023-06-14T02:32:43;160.27;;;8.67;;
4274;SDS011;2151;50.988;11.068;2023-06-14T02:35:10;125.70;;;7.50;;
4274;SDS011;2151;50.988;11.068;2023-06-14T02:37:36;120.77;;;7.30;;
4274;SDS011;2151;50.988;11.068;2023-06-14T02:40:03;124.57;;;7.90;;
4274;SDS011;2151;50.988;11.068;2023-06-14T02:42:29;123.60;;;8.10;;
4274;SDS011;2151;50.988;11.068;2023-06-14T02:44:56;124.30;;;7.87;;
4274;SDS011;2151;50.988;11.068;2023-06-14T02:47:23;121.37;;;7.80;;
4274;SDS011;2151;50.988;11.068;2023-06-14T02:49:50;123.50;;;8.13;;
4274;SDS011;2151;50.988;11.068;2023-06-14T02:52:17;122.27;;;7.70;;
4274;SDS011;2151;50.988;11.068;2023-06-14T02:54:43;121.93;;;7.97;;
4274;SDS011;2151;50.988;11.068;2023-06-14T02:57:10;124.83;;;8.30;;
4274;SDS011;2151;50.988;11.068;2023-06-14T02:59:37;125.40;;;7.60;;
4274;SDS011;2151;50.988;11.068;2023-06-14T03:02:03;122.20;;;7.80;;
4274;SDS011;2151;50.988;11.068;2023-06-14T03:04:30;122.47;;;8.37;;
4274;SDS011;2151;50.988;11.068;2023-06-14T03:07:01;127.00;;;8.00;;
4274;SDS011;2151;50.988;11.068;2023-06-14T03:09:29;120.77;;;7.53;;
4274;SDS011;2151;50.988;11.068;2023-06-14T03:11:55;125.17;;;7.90;;
4274;SDS011;2151;50.988;11.068;2023-06-14T03:14:22;126.50;;;7.47;;
4274;SDS011;2151;50.988;11.068;2023-06-14T03:16:48;124.33;;;7.50;;
4274;SDS011;2151;50.988;11.068;2023-06-14T03:19:16;122.27;;;7.60;;
4274;SDS011;2151;50.988;11.068;2023-06-14T03:21:43;123.77;;;7.50;;
4274;SDS011;2151;50.988;11.068;2023-06-14T03:24:11;121.07;;;7.47;;
4274;SDS011;2151;50.988;11.068;2023-06-14T03:26:37;123.10;;;7.60;;
4274;SDS011;2151;50.988;11.068;2023-06-14T03:29:04;123.07;;;7.57;;
4274;SDS011;2151;50.988;11.068;2023-06-14T03:31:31;122.07;;;8.27;;
4274;SDS011;2151;50.988;11.068;2023-06-14T03:33:59;122.67;;;7.90;;
4274;SDS011;2151;50.988;11.068;2023-06-14T03:36:26;123.80;;;8.40;;
4274;SDS011;2151;50.988;11.068;2023-06-14T03:38:52;122.67;;;7.90;;
4274;SDS011;2151;50.988;11.068;2023-06-14T03:41:19;123.77;;;7.67;;
4274;SDS011;2151;50.988;11.068;2023-06-14T03:43:45;124.70;;;8.20;;
4274;SDS011;2151;50.988;11.068;2023-06-14T03:46:12;127.40;;;7.90;;
4274;SDS011;2151;50.988;11.068;2023-06-14T03:48:40;123.83;;;7.67;;
4274;SDS011;2151;50.988;11.068;2023-06-14T03:51:08;122.53;;;7.53;;
4274;SDS011;2151;50.988;11.068;2023-06-14T03:53:35;124.57;;;7.80;;
4274;SDS011;2151;50.988;11.068;2023-06-14T03:56:19;123.37;;;7.63;;
4274;SDS011;2151;50.988;11.068;2023-06-14T03:58:46;122.17;;;7.63;;
4274;SDS011;2151;50.988;11.068;2023-06-14T04:01:12;122.07;;;7.20;;
4274;SDS011;2151;50.988;11.068;2023-06-14T04:03:39;121.07;;;6.93;;
4274;SDS011;2151;50.988;11.068;2023-06-14T04:06:07;121.97;;;7.00;;
4274;SDS011;2151;50.988;11.068;2023-06-14T04:08:34;125.80;;;7.57;;
4274;SDS011;2151;50.988;11.068;2023-06-14T04:11:01;122.17;;;7.77;;
4274;SDS011;2151;50.988;11.068;2023-06-14T04:13:28;123.07;;;8.07;;
4274;SDS011;2151;50.988;11.068;2023-06-14T04:15:54;128.53;;;8.10;;
4274;SDS011;2151;50.988;11.068;2023-06-14T04:18:23;123.47;;;8.10;;
4274;SDS011;2151;50.988;11.068;2023-06-14T04:20:50;124.70;;;8.23;;
4274;SDS011;2151;50.988;11.068;2023-06-14T04:23:17;124.80;;;8.07;;
4274;SDS011;2151;50.988;11.068;2023-06-14T04:25:47;122.27;;;7.50;;
4274;SDS011;2151;50.988;11.068;2023-06-14T04:28:15;126.67;;;7.90;;
4274;SDS011;2151;50.988;11.068;2023-06-14T04:30:43;122.07;;;7.30;;
4274;SDS011;2151;50.988;11.068;2023-06-14T04:33:11;129.27;;;8.20;;
4274;SDS011;2151;50.988;11.068;2023-06-14T04:35:38;123.30;;;7.80;;
4274;SDS011;2151;50.988;11.068;2023-06-14T04:38:07;122.60;;;7.20;;
4274;SDS011;2151;50.988;11.068;2023-06-14T04:40:35;129.00;;;8.10;;
4274;SDS011;2151;50.988;11.068;2023-06-14T04:43:09;121.40;;;7.53;;
4274;SDS011;2151;50.988;11.068;2023-06-14T04:45:38;122.07;;;7.87;;
4274;SDS011;2151;50.988;11.068;2023-06-14T04:48:06;127.10;;;8.17;;
4274;SDS011;2151;50.988;11.068;2023-06-14T04:50:33;124.57;;;8.23;;
4274;SDS011;2151;50.988;11.068;2023-06-14T04:52:59;123.73;;;7.77;;
4274;SDS011;2151;50.988;11.068;2023-06-14T04:55:26;122.87;;;7.93;;
4274;SDS011;2151;50.988;11.068;2023-06-14T04:57:52;124.90;;;8.07;;
4274;SDS011;2151;50.988;11.068;2023-06-14T05:00:22;124.70;;;7.87;;
4274;SDS011;2151;50.988;11.068;2023-06-14T05:02:49;121.87;;;8.07;;
4274;SDS011;2151;50.988;11.068;2023-06-14T05:05:17;124.50;;;7.87;;
4274;SDS011;2151;50.988;11.068;2023-06-14T05:07:44;122.87;;;8.13;;
4274;SDS011;2151;50.988;11.068;2023-06-14T05:10:10;125.10;;;8.00;;
4274;SDS011;2151;50.988;11.068;2023-06-14T05:12:37;129.20;;;9.07;;
4274;SDS011;2151;50.988;11.068;2023-06-14T05:15:03;123.37;;;8.57;;
4274;SDS011;2151;50.988;11.068;2023-06-14T05:17:31;123.57;;;8.10;;
4274;SDS011;2151;50.988;11.068;2023-06-14T05:19:57;125.53;;;8.57;;
4274;SDS011;2151;50.988;11.068;2023-06-14T05:22:23;127.37;;;9.03;;
4274;SDS011;2151;50.988;11.068;2023-06-14T05:24:50;123.10;;;7.97;;
4274;SDS011;2151;50.988;11.068;2023-06-14T05:27:17;125.87;;;8.37;;
4274;SDS011;2151;50.988;11.068;2023-06-14T05:29:43;126.80;;;7.80;;
4274;SDS011;2151;50.988;11.068;2023-06-14T05:32:10;124.00;;;8.10;;
4274;SDS011;2151;50.988;11.068;2023-06-14T05:34:36;122.07;;;7.30;;
4274;SDS011;2151;50.988;11.068;2023-06-14T05:37:03;122.33;;;8.60;;
4274;SDS011;2151;50.988;11.068;2023-06-14T05:39:30;119.77;;;6.90;;
4274;SDS011;2151;50.988;11.068;2023-06-14T05:41:56;123.63;;;7.37;;
4274;SDS011;2151;50.988;11.068;2023-06-14T05:44:23;123.00;;;8.00;;
4274;SDS011;2151;50.988;11.068;2023-06-14T05:46:49;121.67;;;8.17;;
4274;SDS011;2151;50.988;11.068;2023-06-14T05:49:16;121.90;;;7.77;;
4274;SDS011;2151;50.988;11.068;2023-06-14T05:51:42;120.47;;;7.23;;
4274;SDS011;2151;50.988;11.068;2023-06-14T05:54:09;121.33;;;8.43;;
4274;SDS011;2151;50.988;11.068;2023-06-14T05:56:35;119.60;;;7.37;;
4274;SDS011;2151;50.988;11.068;2023-06-14T05:59:01;124.03;;;8.20;;
4274;SDS011;2151;50.988;11.068;2023-06-14T06:01:28;121.60;;;7.80;;
4274;SDS011;2151;50.988;11.068;2023-06-14T06:03:55;125.27;;;8.27;;
4274;SDS011;2151;50.988;11.068;2023-06-14T06:06:21;124.60;;;8.00;;
4274;SDS011;2151;50.988;11.068;2023-06-14T06:08:48;122.97;;;8.10;;
4274;SDS011;2151;50.988;11.068;2023-06-14T06:11:15;120.67;;;8.30;;
4274;SDS011;2151;50.988;11.068;2023-06-14T06:13:41;122.27;;;8.00;;
4274;SDS011;2151;50.988;11.068;2023-06-14T06:16:08;123.13;;;8.50;;
4274;SDS011;2151;50.988;11.068;2023-06-14T06:18:35;122.57;;;8.30;;
4274;SDS011;2151;50.988;11.068;2023-06-14T06:21:03;127.60;;;8.10;;
4274;SDS011;2151;50.988;11.068;2023-06-14T06:23:29;121.33;;;8.03;;
4274;SDS011;2151;50.988;11.068;2023-06-14T06:25:56;119.47;;;7.50;;
4274;SDS011;2151;50.988;11.068;2023-06-14T06:28:22;130.17;;;7.97;;
4274;SDS011;2151;50.988;11.068;2023-06-14T06:30:49;120.47;;;7.63;;
4274;SDS011;2151;50.988;11.068;2023-06-14T06:33:17;124.20;;;8.27;;
4274;SDS011;2151;50.988;11.068;2023-06-14T06:35:44;120.27;;;8.10;;
4274;SDS011;2151;50.988;11.068;2023-06-14T06:38:11;120.83;;;8.10;;
4274;SDS011;2151;50.988;11.068;2023-06-14T06:40:38;122.10;;;8.60;;
4274;SDS011;2151;50.988;11.068;2023-06-14T06:43:04;121.50;;;7.27;;
4274;SDS011;2151;50.988;11.068;2023-06-14T06:45:30;120.47;;;7.70;;
4274;SDS011;2151;50.988;11.068;2023-06-14T06:47:57;120.40;;;7.83;;
4274;SDS011;2151;50.988;11.068;2023-06-14T06:50:24;120.40;;;8.03;;
4274;SDS011;2151;50.988;11.068;2023-06-14T06:52:51;122.57;;;8.37;;
4274;SDS011;2151;50.988;11.068;2023-06-14T06:55:17;119.87;;;8.13;;
4274;SDS011;2151;50.988;11.068;2023-06-14T06:57:45;120.40;;;7.83;;
4274;SDS011;2151;50.988;11.068;2023-06-14T07:00:11;122.37;;;8.93;;
4274;SDS011;2151;50.988;11.068;2023-06-14T07:02:39;120.87;;;8.23;;
4274;SDS011;2151;50.988;11.068;2023-06-14T07:05:06;123.00;;;9.33;;
4274;SDS011;2151;50.988;11.068;2023-06-14T07:07:34;120.80;;;9.23;;
4274;SDS011;2151;50.988;11.068;2023-06-14T07:10:01;121.50;;;10.20;;
4274;SDS011;2151;50.988;11.068;2023-06-14T07:12:28;122.73;;;11.70;;
4274;SDS011;2151;50.988;11.068;2023-06-14T07:14:56;124.27;;;13.67;;
4274;SDS011;2151;50.988;11.068;2023-06-14T07:17:23;125.50;;;14.00;;
4274;SDS011;2151;50.988;11.068;2023-06-14T07:19:50;125.57;;;13.37;;
4274;SDS011;2151;50.988;11.068;2023-06-14T07:22:17;124.40;;;12.53;;
4274;SDS011;2151;50.988;11.068;2023-06-14T07:24:44;126.33;;;11.80;;
4274;SDS011;2151;50.988;11.068;2023-06-14T07:27:10;125.63;;;12.10;;
4274;SDS011;2151;50.988;11.068;2023-06-14T07:29:40;128.50;;;12.30;;
4274;SDS011;2151;50.988;11.068;2023-06-14T07:32:07;124.50;;;11.73;;
4274;SDS011;2151;50.988;11.068;2023-06-14T07:34:33;123.20;;;9.50;;
4274;SDS011;2151;50.988;11.068;2023-06-14T07:36:59;123.63;;;9.07;;
4274;SDS011;2151;50.988;11.068;2023-06-14T07:39:26;124.77;;;9.13;;
4274;SDS011;2151;50.988;11.068;2023-06-14T07:41:53;127.23;;;9.80;;
4274;SDS011;2151;50.988;11.068;2023-06-14T07:44:20;129.80;;;8.57;;
4274;SDS011;2151;50.988;11.068;2023-06-14T07:46:46;123.07;;;8.67;;
4274;SDS011;2151;50.988;11.068;2023-06-14T07:49:15;122.07;;;9.13;;
4274;SDS011;2151;50.988;11.068;2023-06-14T07:51:42;126.90;;;7.67;;
4274;SDS011;2151;50.988;11.068;2023-06-14T07:54:10;118.90;;;8.27;;
4274;SDS011;2151;50.988;11.068;2023-06-14T07:56:37;120.13;;;8.70;;
4274;SDS011;2151;50.988;11.068;2023-06-14T07:59:03;116.83;;;7.67;;
4274;SDS011;2151;50.988;11.068;2023-06-14T08:01:30;133.17;;;8.40;;
4274;SDS011;2151;50.988;11.068;2023-06-14T08:03:56;123.40;;;9.00;;
4274;SDS011;2151;50.988;11.068;2023-06-14T08:06:23;119.20;;;8.87;;
4274;SDS011;2151;50.988;11.068;2023-06-14T08:08:49;122.30;;;7.70;;
4274;SDS011;2151;50.988;11.068;2023-06-14T08:11:16;117.77;;;8.10;;
4274;SDS011;2151;50.988;11.068;2023-06-14T08:13:42;118.70;;;7.80;;
4274;SDS011;2151;50.988;11.068;2023-06-14T08:16:09;114.77;;;7.70;;
4274;SDS011;2151;50.988;11.068;2023-06-14T08:18:35;116.90;;;7.90;;
4274;SDS011;2151;50.988;11.068;2023-06-14T08:21:02;115.77;;;7.03;;
4274;SDS011;2151;50.988;11.068;2023-06-14T08:23:29;123.67;;;7.73;;
4274;SDS011;2151;50.988;11.068;2023-06-14T08:25:55;120.90;;;7.60;;
4274;SDS011;2151;50.988;11.068;2023-06-14T08:28:22;114.67;;;7.53;;
4274;SDS011;2151;50.988;11.068;2023-06-14T08:30:50;116.80;;;7.97;;
4274;SDS011;2151;50.988;11.068;2023-06-14T08:33:17;115.90;;;8.03;;
4274;SDS011;2151;50.988;11.068;2023-06-14T08:35:43;131.23;;;7.90;;
4274;SDS011;2151;50.988;11.068;2023-06-14T08:38:10;116.47;;;8.20;;
4274;SDS011;2151;50.988;11.068;2023-06-14T08:40:38;119.20;;;7.30;;
4274;SDS011;2151;50.988;11.068;2023-06-14T08:43:06;117.47;;;7.30;;
4274;SDS011;2151;50.988;11.068;2023-06-14T08:45:32;115.07;;;7.17;;
4274;SDS011;2151;50.988;11.068;2023-06-14T08:47:59;114.90;;;7.20;;
4274;SDS011;2151;50.988;11.068;2023-06-14T08:50:27;115.90;;;6.93;;
4274;SDS011;2151;50.988;11.068;2023-06-14T08:52:58;113.90;;;7.00;;
4274;SDS011;2151;50.988;11.068;2023-06-14T08:55:30;119.47;;;7.30;;
4274;SDS011;2151;50.988;11.068;2023-06-14T08:58:02;117.57;;;6.77;;
4274;SDS011;2151;50.988;11.068;2023-06-14T09:00:30;113.20;;;6.83;;
4274;SDS011;2151;50.988;11.068;2023-06-14T09:02:57;113.07;;;6.90;;
4274;SDS011;2151;50.988;11.068;2023-06-14T09:05:25;121.40;;;7.37;;
4274;SDS011;2151;50.988;11.068;2023-06-14T09:07:53;116.77;;;6.37;;
4274;SDS011;2151;50.988;11.068;2023-06-14T09:10:23;112.90;;;7.00;;
4274;SDS011;2151;50.988;11.068;2023-06-14T09:12:52;119.07;;;7.00;;
4274;SDS011;2151;50.988;11.068;2023-06-14T09:15:19;115.83;;;7.40;;
4274;SDS011;2151;50.988;11.068;2023-06-14T09:17:45;124.93;;;7.43;;
4274;SDS011;2151;50.988;11.068;2023-06-14T09:20:12;123.43;;;7.50;;
4274;SDS011;2151;50.988;11.068;2023-06-14T09:22:46;115.37;;;7.50;;
4274;SDS011;2151;50.988;11.068;2023-06-14T09:25:12;114.87;;;7.33;;
4274;SDS011;2151;50.988;11.068;2023-06-14T09:27:54;114.67;;;7.20;;
4274;SDS011;2151;50.988;11.068;2023-06-14T09:30:21;115.30;;;6.77;;
4274;SDS011;2151;50.988;11.068;2023-06-14T09:32:47;112.90;;;6.80;;
4274;SDS011;2151;50.988;11.068;2023-06-14T09:35:14;112.70;;;6.50;;
4274;SDS011;2151;50.988;11.068;2023-06-14T09:37:43;114.10;;;6.70;;
4274;SDS011;2151;50.988;11.068;2023-06-14T09:40:10;114.77;;;6.40;;
4274;SDS011;2151;50.988;11.068;2023-06-14T09:42:37;116.60;;;7.60;;
4274;SDS011;2151;50.988;11.068;2023-06-14T09:45:04;116.90;;;6.80;;
4274;SDS011;2151;50.988;11.068;2023-06-14T09:47:31;120.37;;;6.30;;
4274;SDS011;2151;50.988;11.068;2023-06-14T09:49:57;116.13;;;6.80;;
4274;SDS011;2151;50.988;11.068;2023-06-14T09:52:25;119.23;;;6.43;;
4274;SDS011;2151;50.988;11.068;2023-06-14T09:54:53;119.83;;;7.00;;
4274;SDS011;2151;50.988;11.068;2023-06-14T09:57:21;117.30;;;7.03;;
4274;SDS011;2151;50.988;11.068;2023-06-14T09:59:48;124.73;;;7.10;;
4274;SDS011;2151;50.988;11.068;2023-06-14T10:04:53;111.50;;;6.20;;
4274;SDS011;2151;50.988;11.068;2023-06-14T10:07:24;114.07;;;6.40;;
4274;SDS011;2151;50.988;11.068;2023-06-14T10:09:53;110.27;;;7.10;;
4274;SDS011;2151;50.988;11.068;2023-06-14T10:12:19;120.10;;;5.63;;
4274;SDS011;2151;50.988;11.068;2023-06-14T10:14:48;117.00;;;5.80;;
4274;SDS011;2151;50.988;11.068;2023-06-14T10:17:35;111.40;;;5.77;;
4274;SDS011;2151;50.988;11.068;2023-06-14T10:20:51;113.50;;;5.83;;
4274;SDS011;2151;50.988;11.068;2023-06-14T10:22:55;111.20;;;6.17;;
4274;SDS011;2151;50.988;11.068;2023-06-14T10:25:31;252.70;;;9.70;;
4274;SDS011;2151;50.988;11.068;2023-06-14T10:30:30;122.10;;;6.07;;
4274;SDS011;2151;50.988;11.068;2023-06-14T10:33:03;109.87;;;5.70;;
4274;SDS011;2151;50.988;11.068;2023-06-14T10:35:30;113.53;;;6.40;;
4274;SDS011;2151;50.988;11.068;2023-06-14T10:38:06;114.03;;;6.50;;
4274;SDS011;2151;50.988;11.068;2023-06-14T10:40:33;111.77;;;6.30;;
4274;SDS011;2151;50.988;11.068;2023-06-14T10:43:00;110.50;;;6.50;;
4274;SDS011;2151;50.988;11.068;2023-06-14T10:45:26;110.30;;;5.87;;
4274;SDS011;2151;50.988;11.068;2023-06-14T10:47:53;109.47;;;5.70;;
4274;SDS011;2151;50.988;11.068;2023-06-14T10:50:29;109.13;;;5.47;;
4274;SDS011;2151;50.988;11.068;2023-06-14T10:52:56;110.70;;;5.53;;
4274;SDS011;2151;50.988;11.068;2023-06-14T10:55:22;108.17;;;5.53;;
4274;SDS011;2151;50.988;11.068;2023-06-14T10:57:50;109.97;;;5.50;;
4274;SDS011;2151;50.988;11.068;2023-06-14T11:00:19;109.07;;;5.57;;
4274;SDS011;2151;50.988;11.068;2023-06-14T11:05:20;110.10;;;5.30;;
4274;SDS011;2151;50.988;11.068;2023-06-14T11:12:58;109.90;;;5.20;;
4274;SDS011;2151;50.988;11.068;2023-06-14T11:15:29;108.90;;;5.67;;
4274;SDS011;2151;50.988;11.068;2023-06-14T11:17:55;109.13;;;5.83;;
4274;SDS011;2151;50.988;11.068;2023-06-14T11:20:27;110.87;;;5.13;;
4274;SDS011;2151;50.988;11.068;2023-06-14T11:22:54;108.77;;;5.53;;
4274;SDS011;2151;50.988;11.068;2023-06-14T11:25:20;114.40;;;5.90;;
4274;SDS011;2151;50.988;11.068;2023-06-14T11:27:48;112.10;;;5.83;;
4274;SDS011;2151;50.988;11.068;2023-06-14T11:30:15;111.17;;;5.70;;
4274;SDS011;2151;50.988;11.068;2023-06-14T11:32:42;111.43;;;5.60;;
4274;SDS011;2151;50.988;11.068;2023-06-14T11:35:11;108.23;;;5.17;;
4274;SDS011;2151;50.988;11.068;2023-06-14T11:37:41;108.80;;;5.67;;
4274;SDS011;2151;50.988;11.068;2023-06-14T11:40:08;118.30;;;5.80;;
4274;SDS011;2151;50.988;11.068;2023-06-14T11:42:36;123.53;;;5.70;;
4274;SDS011;2151;50.988;11.068;2023-06-14T11:45:03;110.77;;;5.77;;
4274;SDS011;2151;50.988;11.068;2023-06-14T11:47:35;112.10;;;5.80;;
4274;SDS011;2151;50.988;11.068;2023-06-14T11:50:03;112.40;;;6.23;;
4274;SDS011;2151;50.988;11.068;2023-06-14T11:52:30;112.30;;;5.93;;
4274;SDS011;2151;50.988;11.068;2023-06-14T11:54:56;107.67;;;5.90;;
4274;SDS011;2151;50.988;11.068;2023-06-14T11:57:23;110.17;;;6.10;;
4274;SDS011;2151;50.988;11.068;2023-06-14T11:59:50;111.57;;;5.73;;
4274;SDS011;2151;50.988;11.068;2023-06-14T12:02:17;110.90;;;5.60;;
4274;SDS011;2151;50.988;11.068;2023-06-14T12:04:46;109.30;;;5.97;;
4274;SDS011;2151;50.988;11.068;2023-06-14T12:07:14;110.13;;;5.57;;
4274;SDS011;2151;50.988;11.068;2023-06-14T12:09:41;110.97;;;5.57;;
4274;SDS011;2151;50.988;11.068;2023-06-14T12:12:12;108.77;;;5.87;;
4274;SDS011;2151;50.988;11.068;2023-06-14T12:14:40;107.10;;;5.90;;
4274;SDS011;2151;50.988;11.068;2023-06-14T12:17:07;107.93;;;5.80;;
4274;SDS011;2151;50.988;11.068;2023-06-14T12:19:41;108.47;;;6.03;;
4274;SDS011;2151;50.988;11.068;2023-06-14T12:22:09;108.37;;;6.13;;
4274;SDS011;2151;50.988;11.068;2023-06-14T12:24:35;110.03;;;6.27;;
4274;SDS011;2151;50.988;11.068;2023-06-14T12:27:03;110.57;;;5.77;;
4274;SDS011;2151;50.988;11.068;2023-06-14T12:29:30;108.00;;;5.43;;
4274;SDS011;2151;50.988;11.068;2023-06-14T12:31:57;107.60;;;5.40;;
4274;SDS011;2151;50.988;11.068;2023-06-14T12:34:23;108.80;;;5.97;;
4274;SDS011;2151;50.988;11.068;2023-06-14T12:36:50;108.10;;;5.80;;
4274;SDS011;2151;50.988;11.068;2023-06-14T12:39:17;111.00;;;5.87;;
4274;SDS011;2151;50.988;11.068;2023-06-14T12:41:44;108.37;;;5.90;;
4274;SDS011;2151;50.988;11.068;2023-06-14T12:44:13;108.93;;;5.60;;
4274;SDS011;2151;50.988;11.068;2023-06-14T12:46:40;109.60;;;6.10;;
4274;SDS011;2151;50.988;11.068;2023-06-14T12:49:09;111.50;;;6.00;;
4274;SDS011;2151;50.988;11.068;2023-06-14T12:51:36;109.13;;;5.67;;
4274;SDS011;2151;50.988;11.068;2023-06-14T12:54:02;109.10;;;5.43;;
4274;SDS011;2151;50.988;11.068;2023-06-14T12:56:29;108.90;;;5.63;;
4274;SDS011;2151;50.988;11.068;2023-06-14T12:58:55;110.07;;;5.37;;
4274;SDS011;2151;50.988;11.068;2023-06-14T13:01:22;114.23;;;5.80;;
4274;SDS011;2151;50.988;11.068;2023-06-14T13:03:48;111.83;;;5.23;;
4274;SDS011;2151;50.988;11.068;2023-06-14T13:06:17;107.00;;;5.03;;
4274;SDS011;2151;50.988;11.068;2023-06-14T13:08:43;118.43;;;6.00;;
4274;SDS011;2151;50.988;11.068;2023-06-14T13:11:10;112.70;;;5.50;;
4274;SDS011;2151;50.988;11.068;2023-06-14T13:13:36;107.67;;;5.57;;
4274;SDS011;2151;50.988;11.068;2023-06-14T13:16:03;114.27;;;5.97;;
4274;SDS011;2151;50.988;11.068;2023-06-14T13:18:29;109.40;;;5.67;;
4274;SDS011;2151;50.988;11.068;2023-06-14T13:20:56;107.80;;;6.07;;
4274;SDS011;2151;50.988;11.068;2023-06-14T13:23:22;108.80;;;5.63;;
4274;SDS011;2151;50.988;11.068;2023-06-14T13:25:49;107.87;;;6.40;;
4274;SDS011;2151;50.988;11.068;2023-06-14T13:28:17;108.00;;;5.93;;
4274;SDS011;2151;50.988;11.068;2023-06-14T13:30:43;108.67;;;6.10;;
4274;SDS011;2151;50.988;11.068;2023-06-14T13:33:10;107.77;;;5.87;;
4274;SDS011;2151;50.988;11.068;2023-06-14T13:35:37;109.50;;;6.37;;
4274;SDS011;2151;50.988;11.068;2023-06-14T13:38:05;110.40;;;6.30;;
4274;SDS011;2151;50.988;11.068;2023-06-14T13:40:31;111.60;;;5.70;;
4274;SDS011;2151;50.988;11.068;2023-06-14T13:42:58;108.23;;;5.93;;
4274;SDS011;2151;50.988;11.068;2023-06-14T13:45:24;108.07;;;5.67;;
4274;SDS011;2151;50.988;11.068;2023-06-14T13:47:51;107.43;;;5.50;;
4274;SDS011;2151;50.988;11.068;2023-06-14T13:50:18;111.47;;;5.70;;
4274;SDS011;2151;50.988;11.068;2023-06-14T13:52:44;108.57;;;5.63;;
4274;SDS011;2151;50.988;11.068;2023-06-14T13:55:11;109.07;;;5.30;;
4274;SDS011;2151;50.988;11.068;2023-06-14T13:57:37;106.97;;;5.30;;
4274;SDS011;2151;50.988;11.068;2023-06-14T14:00:04;107.10;;;5.23;;
4274;SDS011;2151;50.988;11.068;2023-06-14T14:02:31;107.93;;;5.00;;
4274;SDS011;2151;50.988;11.068;2023-06-14T14:04:57;106.70;;;4.87;;
4274;SDS011;2151;50.988;11.068;2023-06-14T14:07:24;108.20;;;4.60;;
4274;SDS011;2151;50.988;11.068;2023-06-14T14:09:50;108.80;;;4.53;;
4274;SDS011;2151;50.988;11.068;2023-06-14T14:12:17;107.13;;;5.00;;
4274;SDS011;2151;50.988;11.068;2023-06-14T14:14:44;107.13;;;5.00;;
4274;SDS011;2151;50.988;11.068;2023-06-14T14:17:11;107.27;;;4.90;;
4274;SDS011;2151;50.988;11.068;2023-06-14T14:19:37;109.30;;;4.97;;
4274;SDS011;2151;50.988;11.068;2023-06-14T14:22:04;107.17;;;5.23;;
4274;SDS011;2151;50.988;11.068;2023-06-14T14:24:30;106.90;;;5.13;;
4274;SDS011;2151;50.988;11.068;2023-06-14T14:26:58;114.80;;;5.30;;
4274;SDS011;2151;50.988;11.068;2023-06-14T14:29:26;109.10;;;4.83;;
4274;SDS011;2151;50.988;11.068;2023-06-14T14:31:55;106.93;;;5.03;;
4274;SDS011;2151;50.988;11.068;2023-06-14T14:34:24;109.27;;;5.17;;
4274;SDS011;2151;50.988;11.068;2023-06-14T14:36:50;108.17;;;5.73;;
4274;SDS011;2151;50.988;11.068;2023-06-14T14:39:17;109.83;;;5.23;;
4274;SDS011;2151;50.988;11.068;2023-06-14T14:41:43;113.60;;;4.97;;
4274;SDS011;2151;50.988;11.068;2023-06-14T14:44:10;113.27;;;5.00;;
4274;SDS011;2151;50.988;11.068;2023-06-14T14:46:37;126.30;;;5.77;;
4274;SDS011;2151;50.988;11.068;2023-06-14T14:49:04;181.90;;;6.87;;
4274;SDS011;2151;50.988;11.068;2023-06-14T14:51:31;110.73;;;4.50;;